Time;durP1;ratioP1;P1;durP2;ratioP2;P2;SDS_P1;SDS_P2;PMS_P1;PMS_P2;Temp;Humidity;BMP_temperature;BMP_pressure;BME280_temperature;BME280_humidity;BME280_pressure;Samples;Min_cycle;Max_cycle;Signal;HPM_P1;HPM_P2
2022/10/14 00:00:28;;;;;;;17.13;7.68;;;;;;;;;;5046235;28;20033;-65
2022/10/14 00:02:54;;;;;;;14.93;7.10;;;;;;;;;;5061600;28;20037;-65
2022/10/14 00:05:19;;;;;;;13.32;7.07;;;;;;;;;;5028083;28;20052;-66
2022/10/14 00:07:44;;;;;;;15.57;7.00;;;;;;;;;;5029844;28;20034;-65
2022/10/14 00:10:10;;;;;;;13.85;7.18;;;;;;;;;;5024153;28;20084;-65
2022/10/14 00:12:35;;;;;;;15.52;6.55;;;;;;;;;;5024043;28;20025;-65
2022/10/14 00:15:00;;;;;;;11.93;6.13;;;;;;;;;;5023768;28;20045;-65
2022/10/14 00:17:26;;;;;;;13.02;6.40;;;;;;;;;;5035102;28;20064;-65
2022/10/14 00:19:51;;;;;;;13.68;7.13;;;;;;;;;;5044937;28;20064;-66
2022/10/14 00:22:17;;;;;;;14.52;7.07;;;;;;;;;;5045010;28;20033;-65
2022/10/14 00:24:42;;;;;;;16.25;7.47;;;;;;;;;;5044965;28;20033;-64
2022/10/14 00:27:08;;;;;;;17.52;7.93;;;;;;;;;;5047827;28;20445;-65
2022/10/14 00:29:33;;;;;;;12.73;7.13;;;;;;;;;;5031179;28;20013;-65
2022/10/14 00:31:58;;;;;;;15.20;7.85;;;;;;;;;;5047689;28;20414;-66
2022/10/14 00:34:23;;;;;;;14.82;7.35;;;;;;;;;;5048682;28;20485;-65
2022/10/14 00:36:49;;;;;;;13.60;6.85;;;;;;;;;;5049329;28;20121;-65
2022/10/14 00:39:14;;;;;;;15.55;8.05;;;;;;;;;;5042850;28;20031;-65
2022/10/14 00:41:40;;;;;;;15.10;7.30;;;;;;;;;;5029786;28;20034;-66
2022/10/14 00:44:25;;;;;;;13.95;6.93;;;;;;;;;;5043616;28;20116;-65
2022/10/14 00:46:51;;;;;;;15.85;7.88;;;;;;;;;;5048891;28;20057;-65
2022/10/14 00:49:30;;;;;;;14.98;7.43;;;;;;;;;;5049020;28;20060;-65
2022/10/14 00:52:03;;;;;;;13.70;7.38;;;;;;;;;;5049013;28;20547;-66
2022/10/14 00:54:32;;;;;;;19.65;7.90;;;;;;;;;;5046680;28;20044;-65
2022/10/14 00:56:58;;;;;;;17.38;7.60;;;;;;;;;;5048601;28;20417;-65
2022/10/14 00:59:23;;;;;;;16.35;7.93;;;;;;;;;;5047610;28;20041;-66
2022/10/14 01:01:49;;;;;;;17.42;7.63;;;;;;;;;;5048294;28;20425;-65
2022/10/14 01:04:14;;;;;;;17.20;7.68;;;;;;;;;;5047647;28;20067;-65
2022/10/14 01:07:07;;;;;;;15.00;7.70;;;;;;;;;;5030905;28;20442;-66
2022/10/14 01:10:00;;;;;;;17.00;7.45;;;;;;;;;;5048552;28;20029;-66
2022/10/14 01:12:36;;;;;;;19.67;7.82;;;;;;;;;;5048340;28;20033;-65
2022/10/14 01:15:32;;;;;;;17.88;7.80;;;;;;;;;;5048104;28;20036;-65
2022/10/14 01:18:21;;;;;;;15.15;7.03;;;;;;;;;;5049236;28;20017;-65
2022/10/14 01:20:52;;;;;;;16.30;7.55;;;;;;;;;;5048146;28;20037;-65
2022/10/14 01:23:53;;;;;;;17.10;8.25;;;;;;;;;;5048674;28;20154;-66
2022/10/14 01:26:55;;;;;;;14.02;7.47;;;;;;;;;;5037784;28;20106;-66
2022/10/14 01:29:54;;;;;;;13.88;7.13;;;;;;;;;;5030693;28;20581;-66
2022/10/14 01:32:30;;;;;;;17.75;7.78;;;;;;;;;;5047595;28;20041;-65
2022/10/14 01:35:00;;;;;;;14.52;7.45;;;;;;;;;;5048183;28;20041;-65
2022/10/14 01:37:29;;;;;;;16.83;7.57;;;;;;;;;;5029790;28;20529;-66
2022/10/14 01:40:00;;;;;;;16.08;7.43;;;;;;;;;;5047975;28;20078;-65
2022/10/14 01:42:29;;;;;;;13.85;7.35;;;;;;;;;;5048160;28;20029;-66
2022/10/14 01:45:03;;;;;;;14.65;7.25;;;;;;;;;;5048145;28;20099;-66
2022/10/14 01:47:32;;;;;;;16.23;7.43;;;;;;;;;;5047915;28;20171;-65
2022/10/14 01:50:02;;;;;;;15.20;7.43;;;;;;;;;;5048207;28;20078;-65
2022/10/14 01:52:33;;;;;;;16.13;6.88;;;;;;;;;;5049929;28;20059;-66
2022/10/14 01:55:03;;;;;;;21.65;7.63;;;;;;;;;;5049715;28;20718;-65
2022/10/14 01:57:31;;;;;;;16.60;6.90;;;;;;;;;;5067589;28;20397;-65
2022/10/14 01:59:58;;;;;;;17.80;7.53;;;;;;;;;;5068677;28;20028;-65
2022/10/14 02:02:24;;;;;;;14.23;7.50;;;;;;;;;;5067141;28;20461;-65
2022/10/14 02:04:50;;;;;;;17.15;7.90;;;;;;;;;;5067731;28;20068;-65
2022/10/14 02:07:24;;;;;;;15.75;7.22;;;;;;;;;;5067780;28;20056;-65
2022/10/14 02:10:18;;;;;;;16.08;7.03;;;;;;;;;;5067119;28;20028;-66
2022/10/14 02:13:10;;;;;;;14.90;6.85;;;;;;;;;;5067686;28;20028;-65
2022/10/14 02:16:17;;;;;;;15.82;6.93;;;;;;;;;;5067569;28;20042;-66
2022/10/14 02:18:52;;;;;;;14.05;7.10;;;;;;;;;;5049715;28;20113;-65
2022/10/14 02:21:42;;;;;;;17.80;7.30;;;;;;;;;;5027674;28;20029;-66
2022/10/14 02:24:18;;;;;;;12.57;6.70;;;;;;;;;;5027789;28;20021;-65
2022/10/14 02:26:44;;;;;;;15.40;7.03;;;;;;;;;;5027888;28;20428;-65
2022/10/14 02:29:11;;;;;;;16.60;7.47;;;;;;;;;;5027218;28;20065;-66
2022/10/14 02:31:38;;;;;;;15.75;7.25;;;;;;;;;;5037830;28;20129;-66
2022/10/14 02:34:08;;;;;;;16.15;7.38;;;;;;;;;;5047352;28;20033;-66
2022/10/14 02:36:35;;;;;;;17.77;7.95;;;;;;;;;;5047055;28;20047;-66
2022/10/14 02:39:02;;;;;;;16.23;7.40;;;;;;;;;;5029201;28;20032;-65
2022/10/14 02:41:33;;;;;;;15.23;7.35;;;;;;;;;;5029258;28;20597;-66
2022/10/14 02:43:59;;;;;;;19.30;7.28;;;;;;;;;;5028776;28;20043;-66
2022/10/14 02:46:24;;;;;;;14.82;6.65;;;;;;;;;;5046976;28;20033;-65
2022/10/14 02:48:50;;;;;;;20.00;7.15;;;;;;;;;;5045814;28;20550;-66
2022/10/14 02:51:15;;;;;;;17.13;7.30;;;;;;;;;;5046607;28;20112;-66
2022/10/14 02:53:41;;;;;;;18.60;7.72;;;;;;;;;;5045343;28;20029;-65
2022/10/14 02:56:06;;;;;;;17.40;7.28;;;;;;;;;;5028960;28;20036;-65
2022/10/14 02:58:32;;;;;;;17.67;7.57;;;;;;;;;;5046130;28;20457;-66
2022/10/14 03:00:57;;;;;;;15.82;7.78;;;;;;;;;;5048986;28;20068;-66
2022/10/14 03:03:22;;;;;;;20.27;8.40;;;;;;;;;;5045733;28;20079;-66
2022/10/14 03:05:48;;;;;;;14.57;7.28;;;;;;;;;;5045588;28;20024;-65
2022/10/14 03:08:13;;;;;;;16.85;7.80;;;;;;;;;;5045212;28;20048;-65
2022/10/14 03:10:39;;;;;;;18.33;7.40;;;;;;;;;;5048025;28;20561;-66
2022/10/14 03:13:04;;;;;;;18.30;7.47;;;;;;;;;;5046353;28;20040;-66
2022/10/14 03:15:29;;;;;;;16.35;7.55;;;;;;;;;;5046398;28;20047;-66
2022/10/14 03:17:55;;;;;;;17.95;7.72;;;;;;;;;;5047018;28;20021;-66
2022/10/14 03:20:20;;;;;;;21.20;7.97;;;;;;;;;;5064432;28;20076;-66
2022/10/14 03:22:45;;;;;;;20.23;7.78;;;;;;;;;;5066454;28;20757;-65
2022/10/14 03:25:11;;;;;;;15.25;7.80;;;;;;;;;;5066680;28;20039;-65
2022/10/14 03:27:36;;;;;;;17.20;7.55;;;;;;;;;;5060356;28;20409;-66
2022/10/14 03:30:02;;;;;;;19.80;7.90;;;;;;;;;;5066053;28;20073;-65
2022/10/14 03:32:27;;;;;;;18.10;7.78;;;;;;;;;;5066321;28;20073;-65
2022/10/14 03:34:52;;;;;;;20.05;7.80;;;;;;;;;;5066325;28;20540;-66
2022/10/14 03:37:18;;;;;;;17.77;7.03;;;;;;;;;;5066168;28;20033;-66
2022/10/14 03:39:43;;;;;;;18.17;7.65;;;;;;;;;;5055615;28;20041;-66
2022/10/14 03:42:09;;;;;;;17.08;7.57;;;;;;;;;;5028195;28;20507;-65
2022/10/14 03:44:34;;;;;;;18.83;8.02;;;;;;;;;;5046660;28;20024;-66
2022/10/14 03:46:59;;;;;;;20.15;7.13;;;;;;;;;;5040264;28;20102;-65
2022/10/14 03:49:25;;;;;;;16.70;7.40;;;;;;;;;;5065942;28;20035;-65
2022/10/14 03:51:50;;;;;;;18.67;8.00;;;;;;;;;;5066557;28;20086;-66
2022/10/14 03:54:15;;;;;;;17.55;7.82;;;;;;;;;;5065771;28;20480;-66
2022/10/14 03:56:41;;;;;;;21.77;8.20;;;;;;;;;;5048159;28;20021;-66
2022/10/14 03:59:06;;;;;;;21.55;7.50;;;;;;;;;;5048401;28;20037;-66
2022/10/14 04:01:32;;;;;;;16.80;7.38;;;;;;;;;;5069817;28;20041;-66
2022/10/14 04:03:57;;;;;;;24.38;7.80;;;;;;;;;;5070385;28;20051;-65
2022/10/14 04:06:22;;;;;;;22.02;8.02;;;;;;;;;;5042443;28;20397;-66
2022/10/14 04:08:48;;;;;;;16.00;7.00;;;;;;;;;;5050569;28;20032;-66
2022/10/14 04:11:13;;;;;;;18.23;7.93;;;;;;;;;;5049796;28;20033;-66
2022/10/14 04:13:38;;;;;;;20.63;7.07;;;;;;;;;;5031455;28;20418;-65
2022/10/14 04:16:06;;;;;;;17.70;7.05;;;;;;;;;;5049977;28;20115;-65
2022/10/14 04:18:31;;;;;;;16.58;7.20;;;;;;;;;;5049465;28;20027;-66
2022/10/14 04:21:06;;;;;;;16.20;6.95;;;;;;;;;;5050345;28;20025;-66
2022/10/14 04:23:31;;;;;;;17.83;7.47;;;;;;;;;;5049894;28;20107;-66
2022/10/14 04:25:57;;;;;;;17.75;7.30;;;;;;;;;;5047923;28;20617;-65
2022/10/14 04:28:22;;;;;;;14.85;6.57;;;;;;;;;;5049616;28;20112;-65
2022/10/14 04:30:47;;;;;;;17.45;7.07;;;;;;;;;;5049564;28;20029;-66
2022/10/14 04:33:13;;;;;;;14.18;7.15;;;;;;;;;;5049041;28;20110;-66
2022/10/14 04:35:38;;;;;;;18.50;7.65;;;;;;;;;;5049676;28;20028;-66
2022/10/14 04:38:03;;;;;;;14.13;6.65;;;;;;;;;;5049496;28;20119;-65
2022/10/14 04:40:29;;;;;;;16.08;6.45;;;;;;;;;;5048289;28;20033;-66
2022/10/14 04:42:56;;;;;;;19.98;7.40;;;;;;;;;;5031484;28;20040;-66
2022/10/14 04:45:21;;;;;;;15.95;7.18;;;;;;;;;;5049257;28;20033;-65
2022/10/14 04:47:47;;;;;;;16.63;7.30;;;;;;;;;;5049712;28;20510;-66
2022/10/14 04:50:12;;;;;;;17.50;6.18;;;;;;;;;;5048742;28;20040;-65
2022/10/14 04:52:37;;;;;;;15.90;6.88;;;;;;;;;;5031007;28;20122;-66
2022/10/14 04:55:03;;;;;;;16.85;6.38;;;;;;;;;;5048878;28;20029;-66
2022/10/14 04:57:28;;;;;;;14.15;6.25;;;;;;;;;;5050333;28;20698;-66
2022/10/14 04:59:53;;;;;;;13.23;5.38;;;;;;;;;;5055643;28;20067;-66
2022/10/14 05:02:19;;;;;;;15.07;6.38;;;;;;;;;;5063417;28;20036;-66
2022/10/14 05:04:44;;;;;;;13.85;5.80;;;;;;;;;;5068982;28;20158;-66
2022/10/14 05:07:09;;;;;;;15.50;5.35;;;;;;;;;;5040925;28;20030;-66
2022/10/14 05:09:34;;;;;;;11.07;5.30;;;;;;;;;;5048349;28;20028;-66
2022/10/14 05:12:00;;;;;;;11.15;4.85;;;;;;;;;;5048710;28;20020;-66
2022/10/14 05:14:25;;;;;;;9.32;5.07;;;;;;;;;;5048280;28;20072;-66
2022/10/14 05:16:50;;;;;;;9.55;5.18;;;;;;;;;;5048650;28;20422;-66
2022/10/14 05:19:16;;;;;;;12.15;5.07;;;;;;;;;;5048565;28;20033;-66
2022/10/14 05:21:41;;;;;;;11.75;5.75;;;;;;;;;;5048304;28;20033;-66
2022/10/14 05:24:06;;;;;;;12.55;5.47;;;;;;;;;;5048230;28;20025;-66
2022/10/14 05:26:32;;;;;;;9.88;4.90;;;;;;;;;;5030835;28;20021;-66
2022/10/14 05:28:57;;;;;;;14.38;5.90;;;;;;;;;;5046842;28;20111;-66
2022/10/14 05:31:22;;;;;;;13.68;5.72;;;;;;;;;;5063080;28;20461;-66
2022/10/14 05:33:48;;;;;;;12.13;5.63;;;;;;;;;;5067708;28;20024;-65
2022/10/14 05:36:13;;;;;;;13.52;6.10;;;;;;;;;;5068224;28;20028;-66
2022/10/14 05:38:38;;;;;;;12.57;5.75;;;;;;;;;;5042209;28;20096;-66
2022/10/14 05:41:04;;;;;;;17.25;6.47;;;;;;;;;;5048366;28;20060;-66
2022/10/14 05:43:29;;;;;;;15.48;6.82;;;;;;;;;;5047973;28;20041;-66
2022/10/14 05:45:55;;;;;;;12.07;6.20;;;;;;;;;;5048009;28;20117;-66
2022/10/14 05:48:20;;;;;;;16.13;6.07;;;;;;;;;;5030017;28;20094;-66
2022/10/14 05:50:45;;;;;;;16.73;6.72;;;;;;;;;;5030232;28;20461;-66
2022/10/14 05:53:11;;;;;;;13.68;6.65;;;;;;;;;;5029947;28;20626;-66
2022/10/14 05:55:36;;;;;;;17.73;8.65;;;;;;;;;;5048113;28;20545;-66
2022/10/14 05:58:02;;;;;;;13.60;6.93;;;;;;;;;;5047177;28;20037;-65
2022/10/14 06:00:28;;;;;;;13.02;5.93;;;;;;;;;;5028437;28;20033;-66
2022/10/14 06:02:56;;;;;;;16.58;7.30;;;;;;;;;;5028794;28;20037;-66
2022/10/14 06:05:22;;;;;;;14.95;6.72;;;;;;;;;;5027872;28;20041;-66
2022/10/14 06:07:47;;;;;;;14.00;6.65;;;;;;;;;;5027665;28;20521;-65
2022/10/14 06:10:12;;;;;;;17.73;7.65;;;;;;;;;;5026756;28;20117;-66
2022/10/14 06:12:38;;;;;;;14.35;7.00;;;;;;;;;;5037579;28;20117;-66
2022/10/14 06:15:04;;;;;;;14.02;6.60;;;;;;;;;;5047185;28;20788;-66
2022/10/14 06:17:29;;;;;;;14.13;6.60;;;;;;;;;;5048050;28;20021;-66
2022/10/14 06:19:54;;;;;;;14.85;6.68;;;;;;;;;;5047597;28;20037;-66
2022/10/14 06:22:20;;;;;;;14.00;5.90;;;;;;;;;;5047378;28;20041;-66
2022/10/14 06:24:45;;;;;;;14.43;6.20;;;;;;;;;;5027178;28;20049;-65
2022/10/14 06:27:11;;;;;;;15.25;6.50;;;;;;;;;;5047146;28;20533;-66
2022/10/14 06:29:38;;;;;;;14.15;5.85;;;;;;;;;;5047369;28;20437;-66
2022/10/14 06:32:05;;;;;;;17.42;7.13;;;;;;;;;;5028931;28;20433;-65
2022/10/14 06:34:30;;;;;;;13.10;5.63;;;;;;;;;;5047210;28;20036;-66
2022/10/14 06:36:56;;;;;;;12.27;6.25;;;;;;;;;;5047011;28;20029;-66
2022/10/14 06:39:21;;;;;;;12.05;6.10;;;;;;;;;;5047071;28;20033;-66
2022/10/14 06:41:46;;;;;;;12.43;5.70;;;;;;;;;;5047735;28;20025;-66
2022/10/14 06:44:19;;;;;;;12.98;6.15;;;;;;;;;;5040287;27;20400;-67
2022/10/14 06:46:45;;;;;;;11.68;6.07;;;;;;;;;;5059067;28;20148;-67
2022/10/14 06:49:10;;;;;;;14.15;6.45;;;;;;;;;;5042177;28;20047;-67
2022/10/14 06:51:37;;;;;;;10.85;5.63;;;;;;;;;;5043770;28;20095;-67
2022/10/14 06:54:03;;;;;;;11.98;6.07;;;;;;;;;;5043611;28;20021;-67
2022/10/14 06:56:28;;;;;;;13.43;6.47;;;;;;;;;;5043507;28;20052;-67
2022/10/14 06:58:54;;;;;;;14.48;6.78;;;;;;;;;;5042041;28;20040;-67
2022/10/14 07:01:20;;;;;;;11.35;5.47;;;;;;;;;;5037798;28;20033;-67
2022/10/14 07:03:45;;;;;;;11.02;6.07;;;;;;;;;;5041501;28;20075;-67
2022/10/14 07:06:11;;;;;;;11.60;5.95;;;;;;;;;;5036426;28;20688;-66
2022/10/14 07:08:36;;;;;;;12.68;6.63;;;;;;;;;;5030761;28;20020;-67
2022/10/14 07:11:02;;;;;;;13.38;6.18;;;;;;;;;;5043208;28;20040;-67
2022/10/14 07:13:28;;;;;;;12.13;5.53;;;;;;;;;;5043173;28;20033;-67
2022/10/14 07:15:53;;;;;;;12.70;5.97;;;;;;;;;;5041249;28;20056;-67
2022/10/14 07:18:18;;;;;;;12.65;5.70;;;;;;;;;;5041832;28;20025;-67
2022/10/14 07:20:44;;;;;;;12.13;5.57;;;;;;;;;;5041668;28;20490;-67
2022/10/14 07:23:10;;;;;;;12.07;6.10;;;;;;;;;;5033402;28;20032;-67
2022/10/14 07:25:35;;;;;;;10.43;5.68;;;;;;;;;;5024522;28;20053;-67
2022/10/14 07:28:01;;;;;;;10.60;5.20;;;;;;;;;;5034741;28;20037;-67
2022/10/14 07:30:26;;;;;;;12.20;5.63;;;;;;;;;;5022545;28;20099;-67
2022/10/14 07:32:52;;;;;;;9.07;5.25;;;;;;;;;;5022375;28;20029;-67
2022/10/14 07:35:18;;;;;;;9.90;5.10;;;;;;;;;;5022241;28;20117;-67
2022/10/14 07:37:44;;;;;;;10.43;5.65;;;;;;;;;;5022340;28;20068;-67
2022/10/14 07:40:10;;;;;;;12.40;5.85;;;;;;;;;;5036173;28;20572;-66
2022/10/14 07:42:35;;;;;;;11.70;5.53;;;;;;;;;;5042243;28;20037;-67
2022/10/14 07:45:01;;;;;;;10.07;5.13;;;;;;;;;;5042490;28;20032;-66
2022/10/14 07:47:26;;;;;;;9.60;5.28;;;;;;;;;;5034360;28;20089;-67
2022/10/14 07:49:52;;;;;;;10.27;5.45;;;;;;;;;;5024602;28;20462;-67
2022/10/14 07:52:18;;;;;;;7.88;4.70;;;;;;;;;;5032132;28;20036;-67
2022/10/14 07:54:44;;;;;;;10.00;4.85;;;;;;;;;;5030197;28;20522;-67
2022/10/14 07:57:10;;;;;;;10.30;5.10;;;;;;;;;;5026147;28;20029;-67
2022/10/14 07:59:35;;;;;;;8.77;4.40;;;;;;;;;;5019377;28;20126;-66
2022/10/14 08:02:00;;;;;;;7.57;4.70;;;;;;;;;;5017584;28;20046;-66
2022/10/14 08:04:25;;;;;;;8.25;4.45;;;;;;;;;;5009230;28;20125;-66
2022/10/14 08:06:51;;;;;;;8.80;4.80;;;;;;;;;;5015423;28;20044;-67
2022/10/14 08:09:17;;;;;;;8.48;4.85;;;;;;;;;;5014800;28;20065;-66
2022/10/14 08:11:43;;;;;;;8.18;4.38;;;;;;;;;;5027062;28;20076;-66
2022/10/14 08:14:09;;;;;;;8.18;4.50;;;;;;;;;;5028930;28;20068;-67
2022/10/14 08:16:36;;;;;;;8.00;4.57;;;;;;;;;;5022835;28;20038;-65
2022/10/14 08:19:05;;;;;;;6.45;4.45;;;;;;;;;;5018578;28;20045;-64
2022/10/14 08:21:30;;;;;;;8.52;4.40;;;;;;;;;;5018957;28;20589;-66
2022/10/14 08:23:56;;;;;;;6.93;4.13;;;;;;;;;;5021424;28;20163;-65
2022/10/14 08:26:35;;;;;;;7.72;3.95;;;;;;;;;;5019499;28;20038;-64
2022/10/14 08:29:03;;;;;;;8.85;4.13;;;;;;;;;;5017468;28;20137;-64
2022/10/14 08:31:30;;;;;;;6.78;3.92;;;;;;;;;;5013765;28;20632;-64
2022/10/14 08:33:55;;;;;;;7.65;3.90;;;;;;;;;;5022450;28;20038;-62
2022/10/14 08:36:21;;;;;;;7.22;4.35;;;;;;;;;;5025211;28;20053;-62
2022/10/14 08:38:47;;;;;;;6.60;3.90;;;;;;;;;;5027381;28;20052;-62
2022/10/14 08:41:13;;;;;;;5.78;3.60;;;;;;;;;;5027512;28;20533;-62
2022/10/14 08:43:46;;;;;;;5.35;3.17;;;;;;;;;;5023867;28;20046;-62
2022/10/14 08:46:22;;;;;;;6.57;3.50;;;;;;;;;;5025542;28;20075;-62
2022/10/14 08:48:50;;;;;;;4.97;3.22;;;;;;;;;;5022848;28;20124;-62
2022/10/14 08:51:18;;;;;;;4.60;3.10;;;;;;;;;;5025898;28;20108;-62
2022/10/14 08:53:55;;;;;;;5.57;2.80;;;;;;;;;;5028224;28;20029;-62
2022/10/14 08:56:22;;;;;;;5.47;3.00;;;;;;;;;;5026918;28;20044;-62
2022/10/14 08:58:50;;;;;;;4.38;2.78;;;;;;;;;;5027168;28;20895;-62
2022/10/14 09:01:24;;;;;;;6.38;3.05;;;;;;;;;;5027744;28;20037;-63
2022/10/14 09:03:56;;;;;;;7.40;3.30;;;;;;;;;;5026477;28;20205;-62
2022/10/14 09:06:28;;;;;;;6.53;2.92;;;;;;;;;;5022741;28;20045;-62
2022/10/14 09:08:57;;;;;;;6.88;3.60;;;;;;;;;;5028206;28;20030;-62
2022/10/14 09:11:25;;;;;;;5.80;3.17;;;;;;;;;;5027670;28;20664;-62
2022/10/14 09:13:56;;;;;;;4.90;3.30;;;;;;;;;;5026733;28;20038;-62
2022/10/14 09:16:22;;;;;;;9.32;3.88;;;;;;;;;;5027182;28;20602;-62
2022/10/14 09:18:53;;;;;;;7.95;3.92;;;;;;;;;;5027995;28;20029;-62
2022/10/14 09:21:42;;;;;;;7.18;3.60;;;;;;;;;;5027563;28;20060;-62
2022/10/14 09:24:19;;;;;;;8.57;3.83;;;;;;;;;;5023960;28;20399;-66
2022/10/14 09:26:47;;;;;;;9.02;4.18;;;;;;;;;;5015209;28;20026;-64
2022/10/14 09:29:29;;;;;;;6.13;3.45;;;;;;;;;;5021050;28;20044;-64
2022/10/14 09:32:01;;;;;;;8.18;3.70;;;;;;;;;;5034294;28;20037;-62
2022/10/14 09:34:33;;;;;;;8.73;3.85;;;;;;;;;;5045520;28;20029;-62
2022/10/14 09:37:21;;;;;;;5.85;3.55;;;;;;;;;;5046023;28;20116;-64
2022/10/14 09:39:48;;;;;;;7.63;3.35;;;;;;;;;;5029101;28;20034;-64
2022/10/14 09:42:21;;;;;;;7.72;3.80;;;;;;;;;;5023841;28;20064;-64
2022/10/14 09:45:10;;;;;;;5.88;3.47;;;;;;;;;;5026855;28;20041;-64
2022/10/14 09:48:08;;;;;;;6.35;3.50;;;;;;;;;;5025380;28;20080;-65
2022/10/14 09:50:39;;;;;;;7.30;3.53;;;;;;;;;;5025746;28;20068;-64
2022/10/14 09:53:14;;;;;;;9.68;3.80;;;;;;;;;;5024099;28;20065;-64
2022/10/14 09:55:47;;;;;;;8.93;4.28;;;;;;;;;;5025842;28;20025;-64
2022/10/14 09:58:16;;;;;;;8.23;3.33;;;;;;;;;;5026286;28;20049;-65
2022/10/14 10:00:42;;;;;;;7.80;3.28;;;;;;;;;;5007050;28;20034;-65
2022/10/14 10:03:23;;;;;;;6.65;3.42;;;;;;;;;;5005505;28;20067;-65
2022/10/14 10:06:08;;;;;;;6.60;3.35;;;;;;;;;;5006883;28;20026;-65
2022/10/14 10:08:54;;;;;;;5.78;2.55;;;;;;;;;;5005310;28;20042;-65
2022/10/14 10:11:37;;;;;;;6.10;3.03;;;;;;;;;;5006289;28;20041;-65
2022/10/14 10:14:31;;;;;;;7.65;3.28;;;;;;;;;;5006016;28;20122;-65
2022/10/14 10:17:06;;;;;;;7.40;3.92;;;;;;;;;;5006633;28;20030;-65
2022/10/14 10:19:34;;;;;;;10.73;4.07;;;;;;;;;;5005847;28;20041;-65
2022/10/14 10:22:18;;;;;;;9.85;5.07;;;;;;;;;;5006626;28;20121;-65
2022/10/14 10:24:44;;;;;;;;;;;;;;;;;;5010156;28;20033;-65
2022/10/14 10:27:27;;;;;;;11.82;5.72;;;;;;;;;;5007148;28;19945;-64
2022/10/14 10:29:56;;;;;;;12.88;6.63;;;;;;;;;;5007440;28;20679;-62
2022/10/14 10:32:34;;;;;;;14.07;6.65;;;;;;;;;;5006265;28;20595;-62
2022/10/14 10:35:25;;;;;;;13.10;6.82;;;;;;;;;;5004834;28;20053;-65
2022/10/14 10:38:19;;;;;;;15.95;6.93;;;;;;;;;;5007072;28;20026;-66
2022/10/14 10:41:14;;;;;;;19.23;6.75;;;;;;;;;;5032324;28;20115;-65
2022/10/14 10:43:59;;;;;;;16.52;7.45;;;;;;;;;;5032518;28;20050;-65
2022/10/14 10:46:33;;;;;;;16.35;8.18;;;;;;;;;;5018683;28;20030;-65
2022/10/14 10:49:43;;;;;;;14.38;7.55;;;;;;;;;;5003843;28;20030;-65
2022/10/14 10:52:22;;;;;;;13.27;6.25;;;;;;;;;;5008623;28;21007;-65
2022/10/14 10:54:59;;;;;;;17.20;7.75;;;;;;;;;;5007579;28;20045;-64
2022/10/14 10:57:45;;;;;;;13.93;6.75;;;;;;;;;;5022123;28;20044;-65
2022/10/14 11:00:15;;;;;;;15.07;7.15;;;;;;;;;;5017753;28;20017;-64
2022/10/14 11:02:59;;;;;;;15.20;7.70;;;;;;;;;;5021970;28;20025;-62
2022/10/14 11:05:40;;;;;;;14.35;7.03;;;;;;;;;;5008702;28;20044;-65
2022/10/14 11:14:18;;;;;;;13.52;7.47;;;;;;;;;;5022620;28;20057;-65
2022/10/14 11:17:13;;;;;;;14.40;6.82;;;;;;;;;;5019169;28;20388;-65
2022/10/14 11:19:57;;;;;;;13.27;6.43;;;;;;;;;;5020169;28;20040;-64
2022/10/14 11:22:47;;;;;;;13.68;7.20;;;;;;;;;;5015329;28;20044;-64
2022/10/14 11:25:19;;;;;;;12.02;6.63;;;;;;;;;;5009204;28;20160;-62
2022/10/14 11:27:56;;;;;;;13.97;6.50;;;;;;;;;;5022769;28;20029;-62
2022/10/14 11:30:42;;;;;;;13.43;6.32;;;;;;;;;;5025618;28;20248;-62
2022/10/14 11:33:26;;;;;;;15.25;6.88;;;;;;;;;;5007966;28;20018;-63
2022/10/14 11:36:15;;;;;;;12.23;6.40;;;;;;;;;;5020640;28;20029;-63
2022/10/14 11:39:07;;;;;;;12.90;6.18;;;;;;;;;;5015955;28;20044;-63
2022/10/14 11:41:40;;;;;;;12.25;6.55;;;;;;;;;;5017912;28;20115;-63
2022/10/14 11:44:22;;;;;;;12.52;6.22;;;;;;;;;;5019035;28;20053;-63
2022/10/14 11:46:53;;;;;;;10.30;5.97;;;;;;;;;;5018324;28;20696;-63
2022/10/14 11:49:26;;;;;;;12.68;6.32;;;;;;;;;;5025200;28;20484;-63
2022/10/14 11:51:57;;;;;;;14.25;6.75;;;;;;;;;;5027318;28;20049;-63
2022/10/14 11:54:40;;;;;;;12.48;7.00;;;;;;;;;;5028504;28;20072;-63
2022/10/14 11:57:23;;;;;;;12.98;6.60;;;;;;;;;;5020897;28;20036;-63
2022/10/14 12:00:02;;;;;;;15.90;6.25;;;;;;;;;;5013619;28;20018;-63
2022/10/14 12:03:19;;;;;;;14.00;6.97;;;;;;;;;;5037238;28;20041;-63
2022/10/14 12:05:58;;;;;;;10.75;5.85;;;;;;;;;;5037771;28;20513;-63
2022/10/14 12:08:24;;;;;;;10.90;5.38;;;;;;;;;;5017785;28;20049;-62
2022/10/14 12:11:08;;;;;;;9.25;5.60;;;;;;;;;;5025735;28;20061;-63
2022/10/14 12:13:40;;;;;;;8.73;5.28;;;;;;;;;;5026288;28;20061;-63
2022/10/14 12:16:12;;;;;;;8.25;4.72;;;;;;;;;;5025017;28;20152;-62
2022/10/14 12:18:38;;;;;;;7.82;4.90;;;;;;;;;;4980335;28;20038;-63
2022/10/14 12:21:23;;;;;;;9.20;4.75;;;;;;;;;;4962355;28;20527;-62
2022/10/14 12:24:03;;;;;;;7.82;4.93;;;;;;;;;;4989297;28;20021;-63
2022/10/14 12:26:52;;;;;;;8.75;4.07;;;;;;;;;;4974094;28;20045;-63
2022/10/14 12:29:31;;;;;;;5.68;3.80;;;;;;;;;;4960886;28;20626;-63
2022/10/14 12:32:02;;;;;;;7.68;4.20;;;;;;;;;;4959249;28;20523;-63
2022/10/14 12:34:48;;;;;;;8.23;4.53;;;;;;;;;;4952315;28;20062;-62
2022/10/14 12:37:22;;;;;;;8.52;5.15;;;;;;;;;;4942735;28;20662;-63
2022/10/14 12:39:50;;;;;;;8.02;4.75;;;;;;;;;;4943311;28;20033;-63
2022/10/14 12:42:17;;;;;;;8.02;4.43;;;;;;;;;;4944269;28;20314;-63
2022/10/14 12:45:01;;;;;;;8.63;5.25;;;;;;;;;;4948691;28;20041;-63
2022/10/14 12:47:34;;;;;;;7.22;4.25;;;;;;;;;;4940579;28;20042;-63
2022/10/14 12:50:14;;;;;;;8.85;3.90;;;;;;;;;;4943574;28;20849;-63
2022/10/14 12:52:45;;;;;;;8.75;3.88;;;;;;;;;;4953133;28;20053;-63
2022/10/14 12:55:19;;;;;;;8.73;4.00;;;;;;;;;;4962900;28;20041;-63
2022/10/14 12:57:53;;;;;;;9.05;4.40;;;;;;;;;;4957574;28;20038;-63
2022/10/14 13:00:22;;;;;;;7.43;4.07;;;;;;;;;;4970846;28;20027;-63
2022/10/14 13:02:50;;;;;;;6.50;3.88;;;;;;;;;;4982762;28;20466;-63
2022/10/14 13:05:35;;;;;;;7.28;4.32;;;;;;;;;;4965942;28;20076;-63
2022/10/14 13:08:19;;;;;;;8.00;4.10;;;;;;;;;;4950429;28;20615;-63
2022/10/14 13:10:44;;;;;;;;;;;;;;;;;;4943818;28;20042;-63
2022/10/14 13:13:37;;;;;;;4.93;3.07;;;;;;;;;;4960653;28;20258;-63
2022/10/14 13:16:25;;;;;;;4.45;2.78;;;;;;;;;;4954738;28;20315;-63
2022/10/14 13:18:56;;;;;;;7.35;3.20;;;;;;;;;;4963513;28;20556;-63
2022/10/14 13:21:51;;;;;;;5.32;2.85;;;;;;;;;;4960957;28;20071;-63
2022/10/14 13:24:23;;;;;;;4.18;2.67;;;;;;;;;;4957264;28;20041;-63
2022/10/14 13:26:51;;;;;;;5.03;2.92;;;;;;;;;;4964838;28;20462;-63
2022/10/14 13:29:29;;;;;;;5.80;2.42;;;;;;;;;;4957171;28;20034;-63
2022/10/14 13:32:21;;;;;;;4.50;2.58;;;;;;;;;;4958733;28;20038;-63
2022/10/14 13:34:58;;;;;;;3.55;2.35;;;;;;;;;;4954809;28;20041;-63
2022/10/14 13:37:51;;;;;;;4.15;2.75;;;;;;;;;;4949691;28;20140;-63
2022/10/14 13:40:20;;;;;;;7.90;3.70;;;;;;;;;;4948319;28;20172;-63
2022/10/14 13:42:51;;;;;;;5.93;3.30;;;;;;;;;;4943530;28;20053;-63
2022/10/14 13:45:19;;;;;;;4.43;3.25;;;;;;;;;;4944973;28;20525;-63
2022/10/14 13:47:47;;;;;;;6.38;3.00;;;;;;;;;;4962230;28;20025;-63
2022/10/14 13:50:17;;;;;;;4.18;2.70;;;;;;;;;;4961634;28;20365;-63
2022/10/14 13:52:50;;;;;;;5.57;2.55;;;;;;;;;;4957574;28;20481;-63
2022/10/14 13:55:19;;;;;;;5.25;2.47;;;;;;;;;;4955310;28;20087;-63
2022/10/14 13:58:09;;;;;;;3.97;2.90;;;;;;;;;;4977284;28;20604;-63
2022/10/14 14:00:37;;;;;;;6.63;2.95;;;;;;;;;;4948999;28;20073;-63
2022/10/14 14:03:15;;;;;;;4.45;2.70;;;;;;;;;;4960097;28;20065;-63
2022/10/14 14:05:41;;;;;;;4.43;2.67;;;;;;;;;;4973795;28;20036;-63
2022/10/14 14:08:15;;;;;;;4.30;2.55;;;;;;;;;;4960943;28;20041;-63
2022/10/14 14:10:50;;;;;;;3.88;2.50;;;;;;;;;;4963038;28;20033;-63
2022/10/14 14:13:15;;;;;;;5.18;3.25;;;;;;;;;;4955782;28;20045;-63
2022/10/14 14:15:42;;;;;;;6.15;2.80;;;;;;;;;;4955656;28;20041;-63
2022/10/14 14:18:38;;;;;;;7.97;2.53;;;;;;;;;;4947657;28;20029;-63
2022/10/14 14:21:04;;;;;;;4.95;2.65;;;;;;;;;;4939940;28;20137;-63
2022/10/14 14:23:29;;;;;;;5.15;3.00;;;;;;;;;;4963860;28;20041;-63
2022/10/14 14:25:55;;;;;;;5.80;3.15;;;;;;;;;;4975756;28;20037;-62
2022/10/14 14:28:23;;;;;;;6.63;3.40;;;;;;;;;;4956489;28;20049;-63
2022/10/14 14:30:53;;;;;;;5.50;3.33;;;;;;;;;;4952036;28;20033;-62
2022/10/14 14:33:31;;;;;;;7.28;4.05;;;;;;;;;;4971912;28;20032;-63
2022/10/14 14:36:08;;;;;;;8.25;4.72;;;;;;;;;;4985113;28;20025;-63
2022/10/14 14:38:36;;;;;;;7.85;3.75;;;;;;;;;;4970064;28;20511;-63
2022/10/14 14:41:12;;;;;;;6.00;3.50;;;;;;;;;;4940217;28;20545;-63
2022/10/14 14:43:37;;;;;;;7.05;4.20;;;;;;;;;;4936320;28;20855;-63
2022/10/14 14:46:04;;;;;;;6.22;3.80;;;;;;;;;;4939804;28;20511;-63
2022/10/14 14:48:31;;;;;;;7.75;4.32;;;;;;;;;;4954944;28;20587;-63
2022/10/14 14:50:57;;;;;;;8.48;4.05;;;;;;;;;;4941732;28;20060;-63
2022/10/14 14:53:28;;;;;;;9.98;4.70;;;;;;;;;;4957139;28;20073;-63
2022/10/14 14:56:04;;;;;;;7.30;4.43;;;;;;;;;;4949854;28;20422;-63
2022/10/14 14:58:37;;;;;;;8.50;4.45;;;;;;;;;;4947580;28;20041;-63
2022/10/14 15:01:05;;;;;;;7.78;5.20;;;;;;;;;;4971594;28;20048;-63
2022/10/14 15:03:33;;;;;;;10.23;4.20;;;;;;;;;;5003023;28;20116;-63
2022/10/14 15:06:02;;;;;;;5.40;3.50;;;;;;;;;;5012344;28;20029;-63